Terminal Aerodrome Forecast
Issued by NWS

Home | Current Version | Previous Version | Text Only | Print | Product List | Glossary On
Versions: 1 2 3 4 5 6 7 8 9 10 11 12 13 14 15 16 17 18 19 20 21 22 23 24 25
457
FTUS42 KGSP 241736
TAFGMU
TAF
KGMU 241736Z 2418/2518 04007KT P6SM VCSH BKN008
     FM242000 01004KT P6SM VCSH BKN014
     FM250100 36007KT P6SM VCSH BKN026
     FM250200 32006KT P6SM VCSH BKN035
     FM251000 28003KT 6SM BR SCT007 SCT021
     FM251200 30006KT P6SM SCT021=

USA.gov is the U.S. government's official web portal to all federal, state and local government web resources and services.